^^
Saratoga-Weather Station Historical Data
Daily Summary for June 8, 2020 Units:  English    Metric   Both
Daily Weekly Monthly Yearly Custom
  High: Low: Average:
Temperature: 68.5 °F 49.1 °F 57.4 °F
Dew Point: 52.7 °F 45.1 °F 48.6 °F
Humidity: 93% 43% 75%
Wind Speed: 11mph 0mph 1.7mph
Wind Gust: 13mph - -
Wind- - WSW
Pressure: 29.9 in 29.9 in -
Precipitation: 0 in    
Historical Graphs
 
 
Tabular Data for June 8, 2020
Time Temperature Dew Point Pressure Wind Wind Speed Wind Gust Humidity Rainfall Rate (Hourly) solar
00:04 51.6 °F 47.3 °F 29.9 in West 2 mph 2 mph 85% 0 in 0 W/m2
00:09 51.4 °F 47.5 °F 29.9 in Calm   1 mph 86% 0 in 0 W/m2
00:14 51.3 °F 47.3 °F 29.9 in Calm   1 mph 86% 0 in 0 W/m2
00:19 51.3 °F 47.5 °F 29.9 in Calm   1 mph 87% 0 in 0 W/m2
00:24 51.1 °F 47.3 °F 29.9 in Calm   1 mph 87% 0 in 0 W/m2
00:29 50.7 °F 46.9 °F 29.9 in Calm   1 mph 87% 0 in 0 W/m2
00:34 50.5 °F 46.8 °F 29.9 in Calm     87% 0 in 0 W/m2
00:39 50.5 °F 47.1 °F 29.9 in Calm     88% 0 in 0 W/m2
00:44 50.4 °F 46.9 °F 29.9 in Calm   1 mph 88% 0 in 0 W/m2
00:49 50.2 °F 46.8 °F 29.9 in Calm   1 mph 88% 0 in 0 W/m2
00:54 50 °F 46.9 °F 29.9 in Calm     89% 0 in 0 W/m2
00:59 50 °F 46.9 °F 29.9 in Calm     89% 0 in 0 W/m2
01:04 49.8 °F 46.8 °F 29.9 in Calm     89% 0 in 0 W/m2
01:09 49.6 °F 46.8 °F 29.9 in Calm     90% 0 in 0 W/m2
01:14 49.6 °F 46.8 °F 29.9 in West 0.9 mph 1 mph 90% 0 in 0 W/m2
01:19 49.6 °F 46.8 °F 29.9 in Calm   1 mph 90% 0 in 0 W/m2
01:24 49.5 °F 46.6 °F 29.9 in Calm     90% 0 in 0 W/m2
01:29 49.5 °F 46.6 °F 29.9 in Calm     90% 0 in 0 W/m2
01:35 49.3 °F 46.8 °F 29.9 in Calm     91% 0 in 0 W/m2
01:40 49.5 °F 46.9 °F 29.9 in Calm   1 mph 91% 0 in 0 W/m2
01:45 49.6 °F 47.1 °F 29.9 in Calm   1 mph 91% 0 in 0 W/m2
01:50 49.8 °F 47.3 °F 29.9 in NW 0.9 mph 1 mph 91% 0 in 0 W/m2
01:55 50.4 °F 47.8 °F 29.9 in Calm   2 mph 91% 0 in 0 W/m2
02:00 50.5 °F 47.7 °F 29.9 in Calm   1 mph 90% 0 in 0 W/m2
02:05 50.7 °F 47.8 °F 29.9 in Calm   1 mph 90% 0 in 0 W/m2
02:10 50.7 °F 47.8 °F 29.9 in NNE 0.9 mph 2 mph 90% 0 in 0 W/m2
02:15 50.9 °F 47.8 °F 29.9 in Calm   1 mph 89% 0 in 0 W/m2
02:20 50.7 °F 47.7 °F 29.9 in WNW 0.9 mph 2 mph 89% 0 in 0 W/m2
02:25 50.7 °F 47.7 °F 29.9 in Calm     89% 0 in 0 W/m2
02:30 50.5 °F 47.5 °F 29.9 in Calm   2 mph 89% 0 in 0 W/m2
02:35 50.4 °F 47.3 °F 29.9 in WNW 0.9 mph 1 mph 89% 0 in 0 W/m2
02:40 50 °F 47.1 °F 29.9 in Calm     90% 0 in 0 W/m2
02:45 49.8 °F 46.9 °F 29.9 in Calm     90% 0 in 0 W/m2
02:50 49.6 °F 46.8 °F 29.9 in Calm     90% 0 in 0 W/m2
02:55 49.6 °F 47.1 °F 29.9 in Calm     91% 0 in 0 W/m2
03:00 49.5 °F 46.9 °F 29.9 in WNW 0.9 mph 2 mph 91% 0 in 0 W/m2
03:05 49.5 °F 46.9 °F 29.9 in Calm     91% 0 in 0 W/m2
03:10 49.3 °F 46.8 °F 29.9 in Calm     91% 0 in 0 W/m2
03:15 49.3 °F 46.8 °F 29.9 in Calm     91% 0 in 0 W/m2
03:20 49.1 °F 46.9 °F 29.9 in Calm     92% 0 in 0 W/m2
03:25 49.1 °F 46.9 °F 29.9 in Calm   1 mph 92% 0 in 0 W/m2
03:30 49.1 °F 46.9 °F 29.9 in Calm     92% 0 in 0 W/m2
03:35 49.3 °F 47.1 °F 29.9 in Calm     92% 0 in 0 W/m2
03:40 49.3 °F 47.1 °F 29.9 in Calm   1 mph 92% 0 in 0 W/m2
03:45 49.1 °F 46.9 °F 29.9 in Calm     92% 0 in 0 W/m2
03:50 49.3 °F 47.1 °F 29.9 in Calm     92% 0 in 0 W/m2
03:55 49.1 °F 46.9 °F 29.9 in Calm     92% 0 in 0 W/m2
04:00 49.3 °F 47.1 °F 29.9 in Calm     92% 0 in 0 W/m2
04:05 49.3 °F 47.1 °F 29.9 in Calm     92% 0 in 0 W/m2
04:10 49.3 °F 47.1 °F 29.9 in Calm     92% 0 in 0 W/m2
04:15 49.1 °F 46.9 °F 29.9 in Calm     92% 0 in 0 W/m2
04:20 49.3 °F 47.3 °F 29.9 in WNW 2 mph 2 mph 93% 0 in 0 W/m2
04:25 49.3 °F 47.3 °F 29.9 in Calm     93% 0 in 0 W/m2
04:30 49.3 °F 47.3 °F 29.9 in WNW 2 mph 2 mph 93% 0 in 0 W/m2
04:35 49.5 °F 47.5 °F 29.9 in WSW 2.9 mph 3 mph 93% 0 in 0 W/m2
04:40 49.6 °F 47.5 °F 29.9 in WSW 0.9 mph 2 mph 92% 0 in 0 W/m2
04:45 49.8 °F 47.7 °F 29.9 in Calm     92% 0 in 0 W/m2
04:50 49.8 °F 47.7 °F 29.9 in Calm   2 mph 92% 0 in 0 W/m2
04:55 49.8 °F 47.7 °F 29.9 in ENE 0.9 mph 2 mph 92% 0 in 0 W/m2
05:00 49.8 °F 47.7 °F 29.9 in Calm     92% 0 in 0 W/m2
05:05 49.8 °F 47.7 °F 29.9 in Calm   2 mph 92% 0 in 0 W/m2
05:10 49.8 °F 47.7 °F 29.9 in Calm     92% 0 in 0 W/m2
05:15 49.8 °F 47.7 °F 29.9 in Calm     92% 0 in 0 W/m2
05:20 49.6 °F 47.5 °F 29.9 in Calm     92% 0 in 0 W/m2
05:25 49.8 °F 47.7 °F 29.9 in Calm     92% 0 in 0 W/m2
05:31 49.8 °F 47.7 °F 29.9 in Calm     92% 0 in 0 W/m2
05:36 49.8 °F 47.7 °F 29.9 in Calm   1 mph 92% 0 in 0 W/m2
05:41 49.8 °F 47.7 °F 29.9 in Calm     92% 0 in 0 W/m2
05:46 49.8 °F 47.7 °F 29.9 in Calm     92% 0 in 0 W/m2
05:51 49.8 °F 47.7 °F 29.9 in Calm     92% 0 in 5 W/m2
05:56 50 °F 47.8 °F 29.9 in Calm   2 mph 92% 0 in 7 W/m2
06:01 50 °F 47.8 °F 29.9 in Calm     92% 0 in 9 W/m2
06:06 50 °F 47.8 °F 29.9 in Calm     92% 0 in 11 W/m2
06:11 50.2 °F 48 °F 29.9 in ENE 0.9 mph 2 mph 92% 0 in 12 W/m2
06:16 50.2 °F 48 °F 29.9 in Calm   1 mph 92% 0 in 16 W/m2
06:21 50.2 °F 48 °F 29.9 in ENE 2 mph 2 mph 92% 0 in 18 W/m2
06:26 50.4 °F 48.2 °F 29.9 in Calm     92% 0 in 21 W/m2
06:31 50.4 °F 48.2 °F 29.9 in Calm     92% 0 in 26 W/m2
06:36 50.5 °F 48.4 °F 29.9 in Calm     92% 0 in 35 W/m2
06:41 50.5 °F 48.4 °F 29.9 in Calm     92% 0 in 42 W/m2
06:46 50.7 °F 48.6 °F 29.9 in Calm     92% 0 in 47 W/m2
06:51 50.7 °F 48.6 °F 29.9 in Calm     92% 0 in 49 W/m2
06:56 50.9 °F 48.7 °F 29.9 in Calm     92% 0 in 40 W/m2
07:01 51.1 °F 48.9 °F 29.9 in NNW 0.9 mph 2 mph 92% 0 in 35 W/m2
07:06 51.1 °F 48.9 °F 29.9 in Calm   1 mph 92% 0 in 37 W/m2
07:11 51.1 °F 48.9 °F 29.9 in Calm   2 mph 92% 0 in 42 W/m2
07:16 51.1 °F 48.6 °F 29.9 in Calm     91% 0 in 47 W/m2
07:21 51.1 °F 48.9 °F 29.9 in Calm     92% 0 in 47 W/m2
07:26 51.1 °F 48.9 °F 29.9 in Calm     92% 0 in 63 W/m2
07:31 51.1 °F 48.9 °F 29.9 in Calm     92% 0 in 67 W/m2
07:37 51.3 °F 49.1 °F 29.9 in Calm     92% 0 in 102 W/m2
07:42 51.6 °F 49.5 °F 29.9 in Calm     92% 0 in 146 W/m2
07:47 52.2 °F 49.8 °F 29.9 in Calm     92% 0 in 220 W/m2
07:52 53.2 °F 50.4 °F 29.9 in Calm   1 mph 90% 0 in 287 W/m2
07:57 54.1 °F 50.4 °F 29.9 in North 0.9 mph 1 mph 87% 0 in 206 W/m2
08:02 54.9 °F 50.2 °F 29.9 in Calm     84% 0 in 193 W/m2
08:07 55 °F 49.6 °F 29.9 in Calm   1 mph 82% 0 in 188 W/m2
08:12 55 °F 49.6 °F 29.9 in NNE 0.9 mph 1 mph 82% 0 in 176 W/m2
08:17 55 °F 49.3 °F 29.9 in Calm   2 mph 81% 0 in 192 W/m2
08:22 55.2 °F 49.5 °F 29.9 in Calm   1 mph 81% 0 in 199 W/m2
08:27 55.9 °F 50.2 °F 29.9 in North 2.9 mph 4 mph 81% 0 in 399 W/m2
08:32 56.1 °F 49.3 °F 29.9 in Calm   2 mph 78% 0 in 278 W/m2
08:37 56.7 °F 49.5 °F 29.9 in NW 0.9 mph 1 mph 77% 0 in 381 W/m2
08:42 57.2 °F 50 °F 29.9 in NW 0.9 mph 2 mph 77% 0 in 396 W/m2
08:47 57.7 °F 50.2 °F 29.9 in WNW 0.9 mph 3 mph 76% 0 in 408 W/m2
08:52 57.7 °F 50.2 °F 29.9 in NNE 2 mph 3 mph 76% 0 in 422 W/m2
08:57 58.3 °F 50 °F 29.9 in SE 2 mph 3 mph 74% 0 in 439 W/m2
09:02 58.6 °F 50.4 °F 29.9 in NW 0.9 mph 3 mph 74% 0 in 448 W/m2
09:07 58.8 °F 50.2 °F 29.9 in NNW 2 mph 3 mph 73% 0 in 462 W/m2
09:12 59.2 °F 50.2 °F 29.9 in SSE 2 mph 2 mph 72% 0 in 480 W/m2
09:17 59.5 °F 50.5 °F 29.9 in ENE 2 mph 4 mph 72% 0 in 492 W/m2
09:22 60.1 °F 51.1 °F 29.9 in East 2.9 mph 3 mph 72% 0 in 501 W/m2
09:27 60.6 °F 52 °F 29.9 in ESE 2 mph 2 mph 73% 0 in 517 W/m2
09:32 61.2 °F 51.3 °F 29.9 in NE 2 mph 4 mph 70% 0 in 527 W/m2
09:37 61.3 °F 51.1 °F 29.9 in ESE 0.9 mph 4 mph 69% 0 in 540 W/m2
09:42 61.3 °F 51.1 °F 29.9 in Calm   2 mph 69% 0 in 552 W/m2
09:47 61.5 °F 51.3 °F 29.9 in North 0.9 mph 1 mph 69% 0 in 566 W/m2
09:52 61.5 °F 51.3 °F 29.9 in SSE 0.9 mph 2 mph 69% 0 in 578 W/m2
09:57 62.1 °F 51.4 °F 29.9 in East 2 mph 2 mph 68% 0 in 596 W/m2
10:02 62.2 °F 50.7 °F 29.9 in NNW 2 mph 2 mph 66% 0 in 606 W/m2
10:07 62.2 °F 51.1 °F 29.9 in North 2 mph 2 mph 67% 0 in 79 W/m2
10:12 62.1 °F 50.9 °F 29.9 in North 0.9 mph 2 mph 67% 0 in 149 W/m2
10:17 62.4 °F 51.3 °F 29.9 in Calm   3 mph 67% 0 in 640 W/m2
10:30 63.5 °F 52 °F 29.9 in East 2 mph 2 mph 66% 0 in 670 W/m2
10:35 64.2 °F 51.4 °F 29.9 in Calm   2 mph 63% 0 in 691 W/m2
10:40 64.8 °F 52.3 °F 29.9 in ESE 0.9 mph 3 mph 64% 0 in 708 W/m2
10:45 65.3 °F 52 °F 29.9 in ESE 2 mph 3 mph 62% 0 in 724 W/m2
10:50 65.7 °F 51.4 °F 29.9 in East 2.9 mph 5 mph 60% 0 in 749 W/m2
10:55 65.7 °F 51.4 °F 29.9 in North 0.9 mph 4 mph 60% 0 in 724 W/m2
11:00 65.5 °F 50.4 °F 29.9 in ENE 4 mph 4 mph 58% 0 in 802 W/m2
11:05 65.8 °F 49.6 °F 29.9 in Calm   2 mph 56% 0 in 863 W/m2
11:10 66.4 °F 50.7 °F 29.9 in NW 2 mph 3 mph 57% 0 in 904 W/m2
11:16 66.9 °F 52.2 °F 29.9 in ENE 2.9 mph 4 mph 59% 0 in 861 W/m2
11:21 66.7 °F 51.4 °F 29.9 in ENE 0.9 mph 7 mph 58% 0 in 306 W/m2
11:26 66 °F 50.9 °F 29.9 in Calm   3 mph 58% 0 in 302 W/m2
11:31 65.7 °F 50.9 °F 29.9 in NNW 0.9 mph 4 mph 59% 0 in 338 W/m2
11:36 65.1 °F 50 °F 29.9 in North 0.9 mph 5 mph 58% 0 in 281 W/m2
11:41 65.1 °F 50.4 °F 29.9 in NW 0.9 mph 8 mph 59% 0 in 267 W/m2
11:46 64.6 °F 50 °F 29.9 in NW 2.9 mph 7 mph 59% 0 in 134 W/m2
11:51 63 °F 50.2 °F 29.9 in WSW 6.9 mph 12 mph 63% 0 in 113 W/m2
11:56 60.6 °F 49.3 °F 29.9 in West 8.9 mph 12 mph 66% 0 in 104 W/m2
12:01 59.4 °F 49.6 °F 29.9 in WSW 4.9 mph 8 mph 70% 0 in 105 W/m2
12:06 58.1 °F 49.5 °F 29.9 in WNW 4.9 mph 8 mph 73% 0 in 113 W/m2
12:11 57.4 °F 48.7 °F 29.9 in SW 4 mph 6 mph 73% 0 in 114 W/m2
12:16 57 °F 48.4 °F 29.9 in WNW 6 mph 6 mph 73% 0 in 118 W/m2
12:21 57 °F 48.7 °F 29.9 in West 4 mph 7 mph 74% 0 in 127 W/m2
12:26 57.4 °F 49.5 °F 29.9 in WNW 6.9 mph 12 mph 75% 0 in 151 W/m2
12:31 57.7 °F 48 °F 29.9 in WSW 2.9 mph 4 mph 70% 0 in 195 W/m2
12:36 57.9 °F 48.2 °F 29.9 in WNW 2.9 mph 7 mph 70% 0 in 239 W/m2
12:41 58.5 °F 48.4 °F 29.9 in WNW 2 mph 4 mph 69% 0 in 272 W/m2
12:46 59 °F 48.4 °F 29.9 in Calm   1 mph 68% 0 in 295 W/m2
12:51 59.5 °F 49.3 °F 29.9 in West 2.9 mph 4 mph 69% 0 in 316 W/m2
12:56 60.1 °F 49.1 °F 29.9 in WNW 2.9 mph 3 mph 67% 0 in 330 W/m2
13:01 60.4 °F 48.6 °F 29.9 in West 2 mph 3 mph 65% 0 in 327 W/m2
13:06 61 °F 50.7 °F 29.9 in West 6.9 mph 8 mph 69% 0 in 302 W/m2
13:11 60.6 °F 52 °F 29.9 in West 4 mph 4 mph 73% 0 in 362 W/m2
13:16 60.3 °F 51.6 °F 29.9 in West 4 mph 8 mph 73% 0 in 425 W/m2
13:21 60.4 °F 51.4 °F 29.9 in WNW 2.9 mph 3 mph 72% 0 in 575 W/m2
13:26 61.2 °F 52 °F 29.9 in WNW 2.9 mph 6 mph 72% 0 in 341 W/m2
13:31 61.5 °F 51.6 °F 29.9 in WNW 2 mph 6 mph 70% 0 in 327 W/m2
13:36 61.7 °F 51.8 °F 29.9 in WSW 4 mph 7 mph 70% 0 in 309 W/m2
13:41 61.9 °F 52.7 °F 29.9 in WNW 2 mph 3 mph 72% 0 in 341 W/m2
13:46 62.2 °F 51.1 °F 29.9 in WNW 0.9 mph 4 mph 67% 0 in 429 W/m2
13:51 63 °F 51.4 °F 29.9 in NW 2.9 mph 5 mph 66% 0 in 858 W/m2
13:56 64 °F 50.7 °F 29.9 in West 2.9 mph 5 mph 62% 0 in 895 W/m2
14:01 64.8 °F 51.4 °F 29.9 in WNW 2.9 mph 6 mph 62% 0 in 691 W/m2
14:06 65.1 °F 50.9 °F 29.9 in WSW 4.9 mph 7 mph 60% 0 in 485 W/m2
14:11 65.3 °F 51.4 °F 29.9 in WSW 2.9 mph 4 mph 61% 0 in 448 W/m2
14:16 65.3 °F 49.6 °F 29.9 in WSW 6.9 mph 7 mph 57% 0 in 582 W/m2
14:21 65.1 °F 50 °F 29.9 in North 2.9 mph 9 mph 58% 0 in 496 W/m2
14:26 65.5 °F 47.8 °F 29.9 in NNW 0.9 mph 4 mph 53% 0 in 895 W/m2
14:32 66 °F 48.9 °F 29.9 in NNW 4 mph 10 mph 54% 0 in 1078 W/m2
14:37 66.6 °F 49.5 °F 29.9 in NNW 6 mph 7 mph 54% 0 in 1044 W/m2
14:42 66.4 °F 48.7 °F 29.9 in WSW 4.9 mph 11 mph 53% 0 in 1113 W/m2
14:47 66.2 °F 49.6 °F 29.9 in WNW 11 mph 12 mph 55% 0 in 1155 W/m2
14:52 65.8 °F 49.6 °F 29.9 in West 4 mph 13 mph 56% 0 in 677 W/m2
14:57 65.1 °F 48.6 °F 29.9 in NNW 4 mph 9 mph 55% 0 in 355 W/m2
15:02 64.8 °F 49.1 °F 29.9 in NNW 2.9 mph 5 mph 57% 0 in 406 W/m2
15:07 64.8 °F 49.1 °F 29.9 in NW 2.9 mph 6 mph 57% 0 in 425 W/m2
15:12 64.9 °F 49.3 °F 29.9 in NW 2 mph 6 mph 57% 0 in 524 W/m2
15:17 65.7 °F 49.1 °F 29.9 in WNW 4 mph 6 mph 55% 0 in 561 W/m2
15:22 66.4 °F 47.1 °F 29.9 in NNE 2 mph 3 mph 50% 0 in 958 W/m2
15:27 66.9 °F 46 °F 29.9 in NW 2 mph 6 mph 47% 0 in 459 W/m2
15:32 67.1 °F 46.2 °F 29.9 in West 2.9 mph 5 mph 47% 0 in 545 W/m2
15:37 67.3 °F 46.4 °F 29.9 in WSW 2.9 mph 8 mph 47% 0 in 524 W/m2
15:42 67.3 °F 45.1 °F 29.9 in West 2.9 mph 4 mph 45% 0 in 454 W/m2
15:47 66.9 °F 46.6 °F 29.9 in West 0.9 mph 8 mph 48% 0 in 397 W/m2
15:52 67.1 °F 46.2 °F 29.9 in West 4 mph 9 mph 47% 0 in 408 W/m2
15:57 66.7 °F 45.3 °F 29.9 in NW 2.9 mph 7 mph 46% 0 in 392 W/m2
16:02 66.7 °F 45.3 °F 29.9 in NNW 2 mph 3 mph 46% 0 in 494 W/m2
16:07 67.1 °F 46.2 °F 29.9 in West 2.9 mph 7 mph 47% 0 in 410 W/m2
16:12 67.5 °F 46 °F 29.9 in WNW 4 mph 4 mph 46% 0 in 487 W/m2
16:17 67.8 °F 45.1 °F 29.9 in North 2 mph 5 mph 44% 0 in 406 W/m2
16:22 68.2 °F 46 °F 29.9 in WNW 4 mph 11 mph 45% 0 in 780 W/m2
16:27 67.8 °F 45.7 °F 29.9 in NW 0.9 mph 3 mph 45% 0 in 315 W/m2
16:32 67.6 °F 45.5 °F 29.9 in WNW 0.9 mph 9 mph 45% 0 in 348 W/m2
16:37 67.3 °F 46.4 °F 29.9 in NNW 4.9 mph 9 mph 47% 0 in 213 W/m2
16:42 66.9 °F 45.5 °F 29.9 in WNW 0.9 mph 4 mph 46% 0 in 211 W/m2
16:47 66.7 °F 45.3 °F 29.9 in Calm   2 mph 46% 0 in 301 W/m2
16:53 67.3 °F 46.9 °F 29.9 in WSW 2.9 mph 7 mph 48% 0 in 399 W/m2
16:58 67.8 °F 49.6 °F 29.9 in WNW 6 mph 11 mph 52% 0 in 766 W/m2
17:03 68 °F 49.3 °F 29.9 in West 8.9 mph 13 mph 51% 0 in 786 W/m2
17:08 67.6 °F 47.8 °F 29.9 in NW 2.9 mph 9 mph 49% 0 in 703 W/m2
17:13 67.6 °F 47.8 °F 29.9 in WNW 2 mph 9 mph 49% 0 in 733 W/m2
17:18 68.4 °F 46.8 °F 29.9 in NW 4 mph 9 mph 46% 0 in 631 W/m2
17:23 68.2 °F 46.6 °F 29.9 in WNW 2.9 mph 10 mph 46% 0 in 608 W/m2
17:28 68.2 °F 46.6 °F 29.9 in West 6.9 mph 8 mph 46% 0 in 592 W/m2
17:33 68.2 °F 46.6 °F 29.9 in West 8.9 mph 10 mph 46% 0 in 584 W/m2
17:38 68 °F 45.9 °F 29.9 in WNW 6 mph 8 mph 45% 0 in 571 W/m2
17:43 68 °F 46.9 °F 29.9 in West 6.9 mph 7 mph 47% 0 in 568 W/m2
17:48 68.4 °F 46.8 °F 29.9 in West 2.9 mph 6 mph 46% 0 in 559 W/m2
17:53 68.5 °F 45.1 °F 29.9 in WNW 2.9 mph 7 mph 43% 0 in 540 W/m2
Juneau County Weather
Compliments of Weather Underground - 2 mb